sensor_id;sensor_type;location;lat;lon;timestamp;P1;durP1;ratioP1;P2;durP2;ratioP2
30458;SDS011;17254;50.976;7.034;2023-02-18T00:00:03;12.65;;;10.15;;
30458;SDS011;17254;50.976;7.034;2023-02-18T00:00:12;12.05;;;9.47;;
30458;SDS011;17254;50.976;7.034;2023-02-18T00:00:21;11.34;;;8.95;;
30458;SDS011;17254;50.976;7.034;2023-02-18T00:00:27;11.87;;;9.17;;
30458;SDS011;17254;50.976;7.034;2023-02-18T00:00:35;11.97;;;9.15;;
30458;SDS011;17254;50.976;7.034;2023-02-18T00:00:41;12.40;;;9.53;;
30458;SDS011;17254;50.976;7.034;2023-02-18T00:00:46;12.57;;;9.55;;
30458;SDS011;17254;50.976;7.034;2023-02-18T00:00:52;12.73;;;9.40;;
30458;SDS011;17254;50.976;7.034;2023-02-18T00:00:58;12.10;;;8.95;;
30458;SDS011;17254;50.976;7.034;2023-02-18T00:01:07;12.00;;;8.97;;
30458;SDS011;17254;50.976;7.034;2023-02-18T00:01:15;12.97;;;9.17;;
30458;SDS011;17254;50.976;7.034;2023-02-18T00:01:22;13.02;;;9.17;;
30458;SDS011;17254;50.976;7.034;2023-02-18T00:01:28;12.96;;;9.06;;
30458;SDS011;17254;50.976;7.034;2023-02-18T00:01:34;12.90;;;8.90;;
30458;SDS011;17254;50.976;7.034;2023-02-18T00:01:41;12.67;;;8.93;;
30458;SDS011;17254;50.976;7.034;2023-02-18T00:01:47;13.43;;;9.07;;
30458;SDS011;17254;50.976;7.034;2023-02-18T00:01:53;13.57;;;9.27;;
30458;SDS011;17254;50.976;7.034;2023-02-18T00:01:59;13.68;;;9.43;;
30458;SDS011;17254;50.976;7.034;2023-02-18T00:02:05;13.50;;;9.30;;
30458;SDS011;17254;50.976;7.034;2023-02-18T00:02:11;13.18;;;9.18;;
30458;SDS011;17254;50.976;7.034;2023-02-18T00:02:17;12.13;;;9.02;;
30458;SDS011;17254;50.976;7.034;2023-02-18T00:02:23;11.98;;;9.02;;
30458;SDS011;17254;50.976;7.034;2023-02-18T00:02:30;12.48;;;9.02;;
30458;SDS011;17254;50.976;7.034;2023-02-18T00:02:37;13.06;;;9.26;;
30458;SDS011;17254;50.976;7.034;2023-02-18T00:02:43;13.13;;;9.48;;
30458;SDS011;17254;50.976;7.034;2023-02-18T00:02:49;13.32;;;9.58;;
30458;SDS011;17254;50.976;7.034;2023-02-18T00:02:55;13.63;;;9.60;;
30458;SDS011;17254;50.976;7.034;2023-02-18T00:03:02;13.44;;;9.86;;
30458;SDS011;17254;50.976;7.034;2023-02-18T00:03:08;12.93;;;9.63;;
30458;SDS011;17254;50.976;7.034;2023-02-18T00:03:13;13.35;;;9.52;;
30458;SDS011;17254;50.976;7.034;2023-02-18T00:03:19;13.32;;;9.45;;
30458;SDS011;17254;50.976;7.034;2023-02-18T00:03:26;12.70;;;9.07;;
30458;SDS011;17254;50.976;7.034;2023-02-18T00:03:32;12.08;;;8.44;;
30458;SDS011;17254;50.976;7.034;2023-02-18T00:03:38;12.47;;;8.60;;
30458;SDS011;17254;50.976;7.034;2023-02-18T00:03:45;12.06;;;8.56;;
30458;SDS011;17254;50.976;7.034;2023-02-18T00:03:52;11.64;;;8.50;;
30458;SDS011;17254;50.976;7.034;2023-02-18T00:03:58;11.93;;;8.98;;
30458;SDS011;17254;50.976;7.034;2023-02-18T00:04:05;12.26;;;9.46;;
30458;SDS011;17254;50.976;7.034;2023-02-18T00:04:10;12.17;;;9.60;;
30458;SDS011;17254;50.976;7.034;2023-02-18T00:04:17;12.34;;;9.74;;
30458;SDS011;17254;50.976;7.034;2023-02-18T00:04:23;11.93;;;9.47;;
30458;SDS011;17254;50.976;7.034;2023-02-18T00:04:29;11.77;;;9.10;;
30458;SDS011;17254;50.976;7.034;2023-02-18T00:04:35;11.77;;;8.57;;
30458;SDS011;17254;50.976;7.034;2023-02-18T00:04:41;11.27;;;8.30;;
30458;SDS011;17254;50.976;7.034;2023-02-18T00:04:47;11.05;;;8.10;;
30458;SDS011;17254;50.976;7.034;2023-02-18T00:04:53;11.57;;;8.10;;
30458;SDS011;17254;50.976;7.034;2023-02-18T00:04:59;11.83;;;8.40;;
30458;SDS011;17254;50.976;7.034;2023-02-18T00:05:05;11.80;;;8.60;;
30458;SDS011;17254;50.976;7.034;2023-02-18T00:05:11;12.25;;;8.82;;
30458;SDS011;17254;50.976;7.034;2023-02-18T00:05:17;13.17;;;9.27;;
30458;SDS011;17254;50.976;7.034;2023-02-18T00:05:23;12.95;;;9.38;;
30458;SDS011;17254;50.976;7.034;2023-02-18T00:05:29;13.30;;;9.67;;
30458;SDS011;17254;50.976;7.034;2023-02-18T00:05:36;13.74;;;9.80;;
30458;SDS011;17254;50.976;7.034;2023-02-18T00:05:42;13.25;;;9.32;;
30458;SDS011;17254;50.976;7.034;2023-02-18T00:05:48;12.88;;;9.30;;
30458;SDS011;17254;50.976;7.034;2023-02-18T00:05:54;12.57;;;9.23;;
30458;SDS011;17254;50.976;7.034;2023-02-18T00:06:00;12.00;;;8.85;;
30458;SDS011;17254;50.976;7.034;2023-02-18T00:06:14;12.56;;;9.10;;
30458;SDS011;17254;50.976;7.034;2023-02-18T00:06:22;12.50;;;8.90;;
30458;SDS011;17254;50.976;7.034;2023-02-18T00:06:30;12.68;;;8.90;;
30458;SDS011;17254;50.976;7.034;2023-02-18T00:06:37;13.04;;;8.96;;
30458;SDS011;17254;50.976;7.034;2023-02-18T00:06:43;12.75;;;8.75;;
30458;SDS011;17254;50.976;7.034;2023-02-18T00:06:49;12.60;;;9.05;;
30458;SDS011;17254;50.976;7.034;2023-02-18T00:06:55;12.85;;;9.15;;
30458;SDS011;17254;50.976;7.034;2023-02-18T00:07:01;13.30;;;9.43;;
30458;SDS011;17254;50.976;7.034;2023-02-18T00:07:07;12.57;;;9.60;;
30458;SDS011;17254;50.976;7.034;2023-02-18T00:07:12;12.48;;;9.98;;
30458;SDS011;17254;50.976;7.034;2023-02-18T00:07:20;12.65;;;9.93;;
30458;SDS011;17254;50.976;7.034;2023-02-18T00:07:27;13.95;;;10.30;;
30458;SDS011;17254;50.976;7.034;2023-02-18T00:07:33;14.03;;;10.23;;
30458;SDS011;17254;50.976;7.034;2023-02-18T00:07:39;14.07;;;10.20;;
30458;SDS011;17254;50.976;7.034;2023-02-18T00:07:46;14.06;;;9.70;;
30458;SDS011;17254;50.976;7.034;2023-02-18T00:07:52;13.23;;;9.60;;
30458;SDS011;17254;50.976;7.034;2023-02-18T00:07:58;12.77;;;9.18;;
30458;SDS011;17254;50.976;7.034;2023-02-18T00:08:04;12.32;;;8.90;;
30458;SDS011;17254;50.976;7.034;2023-02-18T00:08:10;12.77;;;8.83;;
30458;SDS011;17254;50.976;7.034;2023-02-18T00:08:15;12.95;;;9.07;;
30458;SDS011;17254;50.976;7.034;2023-02-18T00:08:21;13.10;;;9.02;;
30458;SDS011;17254;50.976;7.034;2023-02-18T00:08:27;12.68;;;8.95;;
30458;SDS011;17254;50.976;7.034;2023-02-18T00:08:33;12.80;;;9.00;;
30458;SDS011;17254;50.976;7.034;2023-02-18T00:08:40;12.50;;;9.05;;
30458;SDS011;17254;50.976;7.034;2023-02-18T00:08:46;12.47;;;9.13;;
30458;SDS011;17254;50.976;7.034;2023-02-18T00:08:53;12.58;;;9.24;;
30458;SDS011;17254;50.976;7.034;2023-02-18T00:09:02;12.60;;;9.13;;
30458;SDS011;17254;50.976;7.034;2023-02-18T00:09:10;13.24;;;9.14;;
30458;SDS011;17254;50.976;7.034;2023-02-18T00:09:16;14.05;;;9.13;;
30458;SDS011;17254;50.976;7.034;2023-02-18T00:09:22;14.10;;;9.05;;
30458;SDS011;17254;50.976;7.034;2023-02-18T00:09:28;13.70;;;9.05;;
30458;SDS011;17254;50.976;7.034;2023-02-18T00:09:34;12.98;;;9.00;;
30458;SDS011;17254;50.976;7.034;2023-02-18T00:09:40;12.50;;;8.77;;
30458;SDS011;17254;50.976;7.034;2023-02-18T00:09:46;11.52;;;8.45;;
30458;SDS011;17254;50.976;7.034;2023-02-18T00:09:52;10.45;;;7.88;;
30458;SDS011;17254;50.976;7.034;2023-02-18T00:09:58;10.77;;;8.23;;
30458;SDS011;17254;50.976;7.034;2023-02-18T00:10:04;11.13;;;8.35;;
30458;SDS011;17254;50.976;7.034;2023-02-18T00:10:12;11.55;;;8.63;;
30458;SDS011;17254;50.976;7.034;2023-02-18T00:10:19;12.75;;;9.23;;
30458;SDS011;17254;50.976;7.034;2023-02-18T00:10:26;13.70;;;9.47;;
30458;SDS011;17254;50.976;7.034;2023-02-18T00:10:34;13.95;;;9.65;;
30458;SDS011;17254;50.976;7.034;2023-02-18T00:10:41;13.55;;;9.50;;
30458;SDS011;17254;50.976;7.034;2023-02-18T00:10:47;13.45;;;9.48;;
30458;SDS011;17254;50.976;7.034;2023-02-18T00:10:53;12.73;;;9.35;;
30458;SDS011;17254;50.976;7.034;2023-02-18T00:10:59;13.13;;;9.63;;
30458;SDS011;17254;50.976;7.034;2023-02-18T00:11:05;13.23;;;9.80;;
30458;SDS011;17254;50.976;7.034;2023-02-18T00:11:11;13.43;;;10.13;;
30458;SDS011;17254;50.976;7.034;2023-02-18T00:11:18;13.70;;;9.94;;
30458;SDS011;17254;50.976;7.034;2023-02-18T00:11:25;14.23;;;10.27;;
30458;SDS011;17254;50.976;7.034;2023-02-18T00:11:33;13.58;;;10.08;;
30458;SDS011;17254;50.976;7.034;2023-02-18T00:11:40;13.07;;;9.60;;
30458;SDS011;17254;50.976;7.034;2023-02-18T00:11:46;12.70;;;9.77;;
30458;SDS011;17254;50.976;7.034;2023-02-18T00:11:52;12.66;;;9.64;;
30458;SDS011;17254;50.976;7.034;2023-02-18T00:11:59;12.57;;;9.50;;
30458;SDS011;17254;50.976;7.034;2023-02-18T00:12:05;12.52;;;9.35;;
30458;SDS011;17254;50.976;7.034;2023-02-18T00:12:11;12.53;;;9.20;;
30458;SDS011;17254;50.976;7.034;2023-02-18T00:12:17;12.43;;;9.02;;
30458;SDS011;17254;50.976;7.034;2023-02-18T00:12:22;11.75;;;9.23;;
30458;SDS011;17254;50.976;7.034;2023-02-18T00:12:29;11.90;;;9.35;;
30458;SDS011;17254;50.976;7.034;2023-02-18T00:12:35;11.73;;;9.27;;
30458;SDS011;17254;50.976;7.034;2023-02-18T00:12:41;12.27;;;9.52;;
30458;SDS011;17254;50.976;7.034;2023-02-18T00:12:47;12.73;;;9.73;;
30458;SDS011;17254;50.976;7.034;2023-02-18T00:12:53;12.52;;;9.65;;
30458;SDS011;17254;50.976;7.034;2023-02-18T00:12:59;12.27;;;9.45;;
30458;SDS011;17254;50.976;7.034;2023-02-18T00:13:05;12.77;;;9.87;;
30458;SDS011;17254;50.976;7.034;2023-02-18T00:13:11;12.73;;;9.93;;
30458;SDS011;17254;50.976;7.034;2023-02-18T00:13:17;12.95;;;10.23;;
30458;SDS011;17254;50.976;7.034;2023-02-18T00:13:23;13.93;;;10.50;;
30458;SDS011;17254;50.976;7.034;2023-02-18T00:13:30;14.08;;;10.48;;
30458;SDS011;17254;50.976;7.034;2023-02-18T00:13:36;13.93;;;10.03;;
30458;SDS011;17254;50.976;7.034;2023-02-18T00:13:42;13.10;;;9.43;;
30458;SDS011;17254;50.976;7.034;2023-02-18T00:13:49;12.93;;;9.15;;
30458;SDS011;17254;50.976;7.034;2023-02-18T00:13:56;13.04;;;8.92;;
30458;SDS011;17254;50.976;7.034;2023-02-18T00:14:04;13.03;;;9.20;;
30458;SDS011;17254;50.976;7.034;2023-02-18T00:14:15;13.60;;;9.53;;
30458;SDS011;17254;50.976;7.034;2023-02-18T00:14:22;13.40;;;9.47;;
30458;SDS011;17254;50.976;7.034;2023-02-18T00:14:28;13.22;;;9.48;;
30458;SDS011;17254;50.976;7.034;2023-02-18T00:14:35;13.33;;;9.17;;
30458;SDS011;17254;50.976;7.034;2023-02-18T00:14:42;13.28;;;9.48;;
30458;SDS011;17254;50.976;7.034;2023-02-18T00:14:48;13.47;;;9.73;;
30458;SDS011;17254;50.976;7.034;2023-02-18T00:14:54;12.93;;;9.65;;
30458;SDS011;17254;50.976;7.034;2023-02-18T00:15:00;12.60;;;9.75;;
30458;SDS011;17254;50.976;7.034;2023-02-18T00:15:06;12.63;;;9.82;;
30458;SDS011;17254;50.976;7.034;2023-02-18T00:15:13;12.62;;;9.62;;
30458;SDS011;17254;50.976;7.034;2023-02-18T00:15:19;12.35;;;9.30;;
30458;SDS011;17254;50.976;7.034;2023-02-18T00:15:25;12.60;;;9.27;;
30458;SDS011;17254;50.976;7.034;2023-02-18T00:15:33;12.75;;;9.30;;
30458;SDS011;17254;50.976;7.034;2023-02-18T00:15:39;12.07;;;8.93;;
30458;SDS011;17254;50.976;7.034;2023-02-18T00:15:45;12.10;;;8.98;;
30458;SDS011;17254;50.976;7.034;2023-02-18T00:15:51;11.98;;;8.95;;
30458;SDS011;17254;50.976;7.034;2023-02-18T00:15:59;12.10;;;9.02;;
30458;SDS011;17254;50.976;7.034;2023-02-18T00:16:06;12.27;;;9.10;;
30458;SDS011;17254;50.976;7.034;2023-02-18T00:16:15;13.11;;;9.83;;
30458;SDS011;17254;50.976;7.034;2023-02-18T00:16:21;13.27;;;10.20;;
30458;SDS011;17254;50.976;7.034;2023-02-18T00:16:30;13.24;;;10.07;;
30458;SDS011;17254;50.976;7.034;2023-02-18T00:16:36;13.30;;;9.93;;
30458;SDS011;17254;50.976;7.034;2023-02-18T00:16:42;13.13;;;9.45;;
30458;SDS011;17254;50.976;7.034;2023-02-18T00:16:49;13.33;;;9.13;;
30458;SDS011;17254;50.976;7.034;2023-02-18T00:16:55;13.27;;;8.93;;
30458;SDS011;17254;50.976;7.034;2023-02-18T00:17:01;13.27;;;8.82;;
30458;SDS011;17254;50.976;7.034;2023-02-18T00:17:07;13.27;;;8.77;;
30458;SDS011;17254;50.976;7.034;2023-02-18T00:17:13;13.23;;;9.32;;
30458;SDS011;17254;50.976;7.034;2023-02-18T00:17:20;12.87;;;9.87;;
30458;SDS011;17254;50.976;7.034;2023-02-18T00:17:27;12.75;;;10.20;;
30458;SDS011;17254;50.976;7.034;2023-02-18T00:17:33;12.67;;;10.30;;
30458;SDS011;17254;50.976;7.034;2023-02-18T00:17:41;12.87;;;10.27;;
30458;SDS011;17254;50.976;7.034;2023-02-18T00:17:47;13.13;;;9.85;;
30458;SDS011;17254;50.976;7.034;2023-02-18T00:17:53;13.15;;;9.75;;
30458;SDS011;17254;50.976;7.034;2023-02-18T00:17:59;13.10;;;9.85;;
30458;SDS011;17254;50.976;7.034;2023-02-18T00:18:05;12.48;;;9.65;;
30458;SDS011;17254;50.976;7.034;2023-02-18T00:18:11;11.92;;;9.46;;
30458;SDS011;17254;50.976;7.034;2023-02-18T00:18:17;11.27;;;9.03;;
30458;SDS011;17254;50.976;7.034;2023-02-18T00:18:23;11.75;;;9.30;;
30458;SDS011;17254;50.976;7.034;2023-02-18T00:18:29;12.33;;;9.33;;
30458;SDS011;17254;50.976;7.034;2023-02-18T00:18:35;12.93;;;9.70;;
30458;SDS011;17254;50.976;7.034;2023-02-18T00:18:42;13.26;;;9.78;;
30458;SDS011;17254;50.976;7.034;2023-02-18T00:18:48;13.50;;;10.10;;
30458;SDS011;17254;50.976;7.034;2023-02-18T00:18:54;12.75;;;9.57;;
30458;SDS011;17254;50.976;7.034;2023-02-18T00:19:01;12.35;;;9.25;;
30458;SDS011;17254;50.976;7.034;2023-02-18T00:19:11;12.70;;;9.07;;
30458;SDS011;17254;50.976;7.034;2023-02-18T00:19:18;13.23;;;9.10;;
30458;SDS011;17254;50.976;7.034;2023-02-18T00:19:25;13.10;;;9.00;;
30458;SDS011;17254;50.976;7.034;2023-02-18T00:19:31;13.02;;;9.13;;
30458;SDS011;17254;50.976;7.034;2023-02-18T00:19:37;12.63;;;9.40;;
30458;SDS011;17254;50.976;7.034;2023-02-18T00:19:43;12.25;;;8.98;;
30458;SDS011;17254;50.976;7.034;2023-02-18T00:19:49;12.52;;;8.78;;
30458;SDS011;17254;50.976;7.034;2023-02-18T00:19:56;13.60;;;9.17;;
30458;SDS011;17254;50.976;7.034;2023-02-18T00:20:02;14.10;;;9.57;;
30458;SDS011;17254;50.976;7.034;2023-02-18T00:20:09;13.90;;;9.42;;
30458;SDS011;17254;50.976;7.034;2023-02-18T00:20:16;13.53;;;10.20;;
30458;SDS011;17254;50.976;7.034;2023-02-18T00:20:22;13.27;;;10.07;;
30458;SDS011;17254;50.976;7.034;2023-02-18T00:20:28;13.47;;;10.07;;
30458;SDS011;17254;50.976;7.034;2023-02-18T00:20:34;13.50;;;10.00;;
30458;SDS011;17254;50.976;7.034;2023-02-18T00:20:42;13.42;;;9.92;;
30458;SDS011;17254;50.976;7.034;2023-02-18T00:20:48;13.70;;;9.75;;
30458;SDS011;17254;50.976;7.034;2023-02-18T00:20:55;13.47;;;9.63;;
30458;SDS011;17254;50.976;7.034;2023-02-18T00:21:02;13.07;;;9.50;;
30458;SDS011;17254;50.976;7.034;2023-02-18T00:21:08;12.84;;;9.24;;
30458;SDS011;17254;50.976;7.034;2023-02-18T00:21:14;12.65;;;9.32;;
30458;SDS011;17254;50.976;7.034;2023-02-18T00:21:21;12.90;;;9.65;;
30458;SDS011;17254;50.976;7.034;2023-02-18T00:21:27;13.03;;;10.07;;
30458;SDS011;17254;50.976;7.034;2023-02-18T00:21:34;13.18;;;10.52;;
30458;SDS011;17254;50.976;7.034;2023-02-18T00:21:41;13.38;;;10.82;;
30458;SDS011;17254;50.976;7.034;2023-02-18T00:21:47;13.00;;;10.67;;
30458;SDS011;17254;50.976;7.034;2023-02-18T00:21:53;12.53;;;10.30;;
30458;SDS011;17254;50.976;7.034;2023-02-18T00:21:59;12.70;;;10.17;;
30458;SDS011;17254;50.976;7.034;2023-02-18T00:22:06;12.92;;;9.76;;
30458;SDS011;17254;50.976;7.034;2023-02-18T00:22:12;12.95;;;9.68;;
30458;SDS011;17254;50.976;7.034;2023-02-18T00:22:20;13.18;;;9.30;;
30458;SDS011;17254;50.976;7.034;2023-02-18T00:22:26;13.33;;;9.47;;
30458;SDS011;17254;50.976;7.034;2023-02-18T00:22:32;13.52;;;9.95;;
30458;SDS011;17254;50.976;7.034;2023-02-18T00:22:38;13.32;;;10.05;;
30458;SDS011;17254;50.976;7.034;2023-02-18T00:22:44;13.20;;;10.47;;
30458;SDS011;17254;50.976;7.034;2023-02-18T00:22:50;12.98;;;10.70;;
30458;SDS011;17254;50.976;7.034;2023-02-18T00:22:55;12.97;;;10.47;;
30458;SDS011;17254;50.976;7.034;2023-02-18T00:23:02;12.27;;;10.18;;
30458;SDS011;17254;50.976;7.034;2023-02-18T00:23:08;12.20;;;9.88;;
30458;SDS011;17254;50.976;7.034;2023-02-18T00:23:14;12.63;;;9.82;;
30458;SDS011;17254;50.976;7.034;2023-02-18T00:23:20;12.43;;;9.40;;
30458;SDS011;17254;50.976;7.034;2023-02-18T00:23:26;12.57;;;9.33;;
30458;SDS011;17254;50.976;7.034;2023-02-18T00:23:33;12.50;;;9.24;;
30458;SDS011;17254;50.976;7.034;2023-02-18T00:23:40;12.40;;;9.27;;
30458;SDS011;17254;50.976;7.034;2023-02-18T00:23:46;13.43;;;9.43;;
30458;SDS011;17254;50.976;7.034;2023-02-18T00:23:52;13.65;;;9.57;;
30458;SDS011;17254;50.976;7.034;2023-02-18T00:23:59;13.37;;;9.30;;
30458;SDS011;17254;50.976;7.034;2023-02-18T00:24:06;13.32;;;9.40;;
30458;SDS011;17254;50.976;7.034;2023-02-18T00:24:13;13.07;;;9.27;;
30458;SDS011;17254;50.976;7.034;2023-02-18T00:24:19;12.13;;;8.87;;
30458;SDS011;17254;50.976;7.034;2023-02-18T00:24:26;12.23;;;9.00;;
30458;SDS011;17254;50.976;7.034;2023-02-18T00:24:32;12.50;;;9.00;;
30458;SDS011;17254;50.976;7.034;2023-02-18T00:24:38;12.57;;;9.07;;
30458;SDS011;17254;50.976;7.034;2023-02-18T00:24:44;12.35;;;8.98;;
30458;SDS011;17254;50.976;7.034;2023-02-18T00:24:50;12.53;;;9.33;;
30458;SDS011;17254;50.976;7.034;2023-02-18T00:24:56;12.84;;;9.56;;
30458;SDS011;17254;50.976;7.034;2023-02-18T00:25:02;12.90;;;9.77;;
30458;SDS011;17254;50.976;7.034;2023-02-18T00:25:09;13.10;;;9.70;;
30458;SDS011;17254;50.976;7.034;2023-02-18T00:25:15;13.45;;;9.98;;
30458;SDS011;17254;50.976;7.034;2023-02-18T00:25:21;13.90;;;10.00;;
30458;SDS011;17254;50.976;7.034;2023-02-18T00:25:27;14.30;;;9.95;;
30458;SDS011;17254;50.976;7.034;2023-02-18T00:25:33;14.40;;;9.82;;
30458;SDS011;17254;50.976;7.034;2023-02-18T00:25:39;14.55;;;9.90;;
30458;SDS011;17254;50.976;7.034;2023-02-18T00:25:45;14.40;;;9.77;;
30458;SDS011;17254;50.976;7.034;2023-02-18T00:25:57;13.40;;;9.48;;
30458;SDS011;17254;50.976;7.034;2023-02-18T00:26:05;12.49;;;9.06;;
30458;SDS011;17254;50.976;7.034;2023-02-18T00:26:13;11.72;;;8.83;;
30458;SDS011;17254;50.976;7.034;2023-02-18T00:26:20;11.88;;;8.83;;
30458;SDS011;17254;50.976;7.034;2023-02-18T00:26:28;12.43;;;9.20;;
30458;SDS011;17254;50.976;7.034;2023-02-18T00:26:34;12.67;;;9.20;;
30458;SDS011;17254;50.976;7.034;2023-02-18T00:26:40;13.20;;;9.33;;
30458;SDS011;17254;50.976;7.034;2023-02-18T00:26:48;13.25;;;9.90;;
30458;SDS011;17254;50.976;7.034;2023-02-18T00:26:55;12.77;;;10.23;;
30458;SDS011;17254;50.976;7.034;2023-02-18T00:27:01;12.18;;;10.05;;
30458;SDS011;17254;50.976;7.034;2023-02-18T00:27:07;11.87;;;10.03;;
30458;SDS011;17254;50.976;7.034;2023-02-18T00:27:13;11.75;;;9.80;;
30458;SDS011;17254;50.976;7.034;2023-02-18T00:27:19;12.03;;;9.57;;
30458;SDS011;17254;50.976;7.034;2023-02-18T00:27:25;12.23;;;9.30;;
30458;SDS011;17254;50.976;7.034;2023-02-18T00:27:31;12.53;;;9.50;;
30458;SDS011;17254;50.976;7.034;2023-02-18T00:27:37;12.90;;;9.88;;
30458;SDS011;17254;50.976;7.034;2023-02-18T00:27:44;13.18;;;10.10;;
30458;SDS011;17254;50.976;7.034;2023-02-18T00:27:50;13.90;;;10.30;;
30458;SDS011;17254;50.976;7.034;2023-02-18T00:27:56;14.10;;;10.48;;
30458;SDS011;17254;50.976;7.034;2023-02-18T00:28:02;14.27;;;10.50;;
30458;SDS011;17254;50.976;7.034;2023-02-18T00:28:08;14.32;;;10.38;;
30458;SDS011;17254;50.976;7.034;2023-02-18T00:28:14;14.30;;;10.32;;
30458;SDS011;17254;50.976;7.034;2023-02-18T00:28:20;13.37;;;9.57;;
30458;SDS011;17254;50.976;7.034;2023-02-18T00:28:26;12.60;;;9.00;;
30458;SDS011;17254;50.976;7.034;2023-02-18T00:28:32;12.32;;;8.57;;
30458;SDS011;17254;50.976;7.034;2023-02-18T00:28:38;12.13;;;8.47;;
30458;SDS011;17254;50.976;7.034;2023-02-18T00:28:44;12.10;;;8.68;;
30458;SDS011;17254;50.976;7.034;2023-02-18T00:28:52;12.33;;;9.10;;
30458;SDS011;17254;50.976;7.034;2023-02-18T00:28:58;12.67;;;9.40;;
30458;SDS011;17254;50.976;7.034;2023-02-18T00:29:05;13.00;;;9.77;;
30458;SDS011;17254;50.976;7.034;2023-02-18T00:29:12;12.42;;;9.38;;
30458;SDS011;17254;50.976;7.034;2023-02-18T00:29:20;12.73;;;9.67;;
30458;SDS011;17254;50.976;7.034;2023-02-18T00:29:26;12.50;;;9.54;;
30458;SDS011;17254;50.976;7.034;2023-02-18T00:29:32;12.25;;;9.27;;
30458;SDS011;17254;50.976;7.034;2023-02-18T00:29:38;12.70;;;9.55;;
30458;SDS011;17254;50.976;7.034;2023-02-18T00:29:44;12.97;;;9.57;;
30458;SDS011;17254;50.976;7.034;2023-02-18T00:29:50;12.98;;;9.25;;
30458;SDS011;17254;50.976;7.034;2023-02-18T00:29:56;13.32;;;9.27;;
30458;SDS011;17254;50.976;7.034;2023-02-18T00:30:05;13.30;;;9.23;;
30458;SDS011;17254;50.976;7.034;2023-02-18T00:30:12;12.20;;;8.80;;
30458;SDS011;17254;50.976;7.034;2023-02-18T00:30:18;12.48;;;8.95;;
30458;SDS011;17254;50.976;7.034;2023-02-18T00:30:24;12.13;;;8.97;;
30458;SDS011;17254;50.976;7.034;2023-02-18T00:30:34;12.06;;;9.16;;
30458;SDS011;17254;50.976;7.034;2023-02-18T00:30:44;12.29;;;8.96;;
30458;SDS011;17254;50.976;7.034;2023-02-18T00:30:50;12.03;;;8.93;;
30458;SDS011;17254;50.976;7.034;2023-02-18T00:30:56;11.93;;;8.68;;
30458;SDS011;17254;50.976;7.034;2023-02-18T00:31:05;11.95;;;8.48;;
30458;SDS011;17254;50.976;7.034;2023-02-18T00:31:15;12.56;;;8.56;;
30458;SDS011;17254;50.976;7.034;2023-02-18T00:31:23;12.74;;;9.10;;
30458;SDS011;17254;50.976;7.034;2023-02-18T00:31:31;12.74;;;9.54;;
30458;SDS011;17254;50.976;7.034;2023-02-18T00:31:39;12.10;;;9.43;;
30458;SDS011;17254;50.976;7.034;2023-02-18T00:31:45;11.90;;;9.40;;
30458;SDS011;17254;50.976;7.034;2023-02-18T00:31:51;11.73;;;9.18;;
30458;SDS011;17254;50.976;7.034;2023-02-18T00:31:58;12.07;;;9.17;;
30458;SDS011;17254;50.976;7.034;2023-02-18T00:32:04;12.20;;;9.43;;
30458;SDS011;17254;50.976;7.034;2023-02-18T00:32:10;12.20;;;9.55;;
30458;SDS011;17254;50.976;7.034;2023-02-18T00:32:16;12.15;;;9.25;;
30458;SDS011;17254;50.976;7.034;2023-02-18T00:32:22;11.85;;;8.82;;
30458;SDS011;17254;50.976;7.034;2023-02-18T00:32:28;12.40;;;8.63;;
30458;SDS011;17254;50.976;7.034;2023-02-18T00:32:34;12.72;;;8.68;;
30458;SDS011;17254;50.976;7.034;2023-02-18T00:32:40;12.93;;;8.57;;
30458;SDS011;17254;50.976;7.034;2023-02-18T00:32:46;13.30;;;8.88;;
30458;SDS011;17254;50.976;7.034;2023-02-18T00:32:52;14.48;;;8.93;;
30458;SDS011;17254;50.976;7.034;2023-02-18T00:32:58;14.07;;;9.00;;
30458;SDS011;17254;50.976;7.034;2023-02-18T00:33:05;13.54;;;8.86;;
30458;SDS011;17254;50.976;7.034;2023-02-18T00:33:11;13.56;;;8.96;;
30458;SDS011;17254;50.976;7.034;2023-02-18T00:33:17;13.60;;;8.87;;
30458;SDS011;17254;50.976;7.034;2023-02-18T00:33:23;13.18;;;9.13;;
30458;SDS011;17254;50.976;7.034;2023-02-18T00:33:29;12.73;;;9.23;;
30458;SDS011;17254;50.976;7.034;2023-02-18T00:33:37;13.17;;;9.32;;
30458;SDS011;17254;50.976;7.034;2023-02-18T00:33:43;12.87;;;9.07;;
30458;SDS011;17254;50.976;7.034;2023-02-18T00:33:49;13.00;;;9.20;;
30458;SDS011;17254;50.976;7.034;2023-02-18T00:33:56;12.73;;;9.23;;
30458;SDS011;17254;50.976;7.034;2023-02-18T00:34:03;12.60;;;9.00;;
30458;SDS011;17254;50.976;7.034;2023-02-18T00:34:10;12.22;;;8.58;;
30458;SDS011;17254;50.976;7.034;2023-02-18T00:34:17;11.84;;;8.46;;
30458;SDS011;17254;50.976;7.034;2023-02-18T00:34:23;12.18;;;8.50;;
30458;SDS011;17254;50.976;7.034;2023-02-18T00:34:29;12.07;;;8.53;;
30458;SDS011;17254;50.976;7.034;2023-02-18T00:34:35;12.15;;;8.98;;
30458;SDS011;17254;50.976;7.034;2023-02-18T00:34:42;12.48;;;9.55;;
30458;SDS011;17254;50.976;7.034;2023-02-18T00:34:48;13.14;;;9.98;;
30458;SDS011;17254;50.976;7.034;2023-02-18T00:34:54;13.07;;;9.93;;
30458;SDS011;17254;50.976;7.034;2023-02-18T00:35:01;12.92;;;9.78;;
30458;SDS011;17254;50.976;7.034;2023-02-18T00:35:08;13.24;;;9.98;;
30458;SDS011;17254;50.976;7.034;2023-02-18T00:35:13;13.10;;;10.05;;
30458;SDS011;17254;50.976;7.034;2023-02-18T00:35:22;12.87;;;9.80;;
30458;SDS011;17254;50.976;7.034;2023-02-18T00:35:28;12.98;;;10.07;;
30458;SDS011;17254;50.976;7.034;2023-02-18T00:35:34;13.07;;;9.90;;
30458;SDS011;17254;50.976;7.034;2023-02-18T00:35:40;12.55;;;9.38;;
30458;SDS011;17254;50.976;7.034;2023-02-18T00:35:46;12.52;;;9.18;;
30458;SDS011;17254;50.976;7.034;2023-02-18T00:35:59;12.07;;;9.05;;
30458;SDS011;17254;50.976;7.034;2023-02-18T00:36:07;12.15;;;8.95;;
30458;SDS011;17254;50.976;7.034;2023-02-18T00:36:15;11.90;;;8.97;;
30458;SDS011;17254;50.976;7.034;2023-02-18T00:36:23;11.78;;;8.83;;
30458;SDS011;17254;50.976;7.034;2023-02-18T00:36:29;11.68;;;8.78;;
30458;SDS011;17254;50.976;7.034;2023-02-18T00:36:37;13.30;;;9.10;;
30458;SDS011;17254;50.976;7.034;2023-02-18T00:36:43;13.55;;;9.02;;
30458;SDS011;17254;50.976;7.034;2023-02-18T00:36:49;14.07;;;9.18;;
30458;SDS011;17254;50.976;7.034;2023-02-18T00:36:55;14.38;;;9.10;;
30458;SDS011;17254;50.976;7.034;2023-02-18T00:37:01;13.50;;;8.73;;
30458;SDS011;17254;50.976;7.034;2023-02-18T00:37:07;12.30;;;8.50;;
30458;SDS011;17254;50.976;7.034;2023-02-18T00:37:13;12.50;;;8.57;;
30458;SDS011;17254;50.976;7.034;2023-02-18T00:37:20;11.90;;;8.55;;
30458;SDS011;17254;50.976;7.034;2023-02-18T00:37:26;11.66;;;8.64;;
30458;SDS011;17254;50.976;7.034;2023-02-18T00:37:32;12.30;;;9.02;;
30458;SDS011;17254;50.976;7.034;2023-02-18T00:37:39;13.16;;;9.48;;
30458;SDS011;17254;50.976;7.034;2023-02-18T00:37:45;12.63;;;9.18;;
30458;SDS011;17254;50.976;7.034;2023-02-18T00:37:52;12.48;;;9.06;;
30458;SDS011;17254;50.976;7.034;2023-02-18T00:37:58;12.48;;;8.90;;
30458;SDS011;17254;50.976;7.034;2023-02-18T00:38:04;12.15;;;8.57;;
30458;SDS011;17254;50.976;7.034;2023-02-18T00:38:10;11.55;;;8.30;;
30458;SDS011;17254;50.976;7.034;2023-02-18T00:38:16;11.68;;;8.32;;
30458;SDS011;17254;50.976;7.034;2023-02-18T00:38:22;12.32;;;8.70;;
30458;SDS011;17254;50.976;7.034;2023-02-18T00:38:28;13.17;;;9.17;;
30458;SDS011;17254;50.976;7.034;2023-02-18T00:38:34;13.05;;;9.32;;
30458;SDS011;17254;50.976;7.034;2023-02-18T00:38:42;13.77;;;9.68;;
30458;SDS011;17254;50.976;7.034;2023-02-18T00:38:50;13.76;;;9.81;;